sensor_id;sensor_type;location;lat;lon;timestamp;temperature;humidity
10316;DHT22;5203;48.976;8.306;2024-03-06T00:01:49;5.20;99.90
10316;DHT22;5203;48.976;8.306;2024-03-06T00:04:15;5.30;99.90
10316;DHT22;5203;48.976;8.306;2024-03-06T00:06:41;5.20;99.90
10316;DHT22;5203;48.976;8.306;2024-03-06T00:09:07;5.20;99.90
10316;DHT22;5203;48.976;8.306;2024-03-06T00:11:36;5.30;99.90
10316;DHT22;5203;48.976;8.306;2024-03-06T00:14:04;5.20;99.90
10316;DHT22;5203;48.976;8.306;2024-03-06T00:16:31;5.30;99.90
10316;DHT22;5203;48.976;8.306;2024-03-06T00:18:57;5.30;99.90
10316;DHT22;5203;48.976;8.306;2024-03-06T00:21:23;5.30;99.90
10316;DHT22;5203;48.976;8.306;2024-03-06T00:23:48;5.40;99.90
10316;DHT22;5203;48.976;8.306;2024-03-06T00:26:14;5.40;99.90
10316;DHT22;5203;48.976;8.306;2024-03-06T00:28:40;5.40;99.90
10316;DHT22;5203;48.976;8.306;2024-03-06T00:31:06;5.50;99.90
10316;DHT22;5203;48.976;8.306;2024-03-06T00:33:31;5.50;99.90
10316;DHT22;5203;48.976;8.306;2024-03-06T00:35:57;5.50;99.90
10316;DHT22;5203;48.976;8.306;2024-03-06T00:38:23;5.50;99.90
10316;DHT22;5203;48.976;8.306;2024-03-06T00:40:49;5.50;99.90
10316;DHT22;5203;48.976;8.306;2024-03-06T00:43:15;5.50;99.90
10316;DHT22;5203;48.976;8.306;2024-03-06T00:45:40;5.50;99.90
10316;DHT22;5203;48.976;8.306;2024-03-06T00:48:07;5.50;99.90
10316;DHT22;5203;48.976;8.306;2024-03-06T00:50:33;5.50;99.90
10316;DHT22;5203;48.976;8.306;2024-03-06T00:52:59;5.50;99.90
10316;DHT22;5203;48.976;8.306;2024-03-06T00:55:24;5.60;99.90
10316;DHT22;5203;48.976;8.306;2024-03-06T00:57:50;5.50;99.90
10316;DHT22;5203;48.976;8.306;2024-03-06T01:00:16;5.50;99.90
10316;DHT22;5203;48.976;8.306;2024-03-06T01:02:43;5.50;99.90
10316;DHT22;5203;48.976;8.306;2024-03-06T01:05:08;5.50;99.90
10316;DHT22;5203;48.976;8.306;2024-03-06T01:07:37;5.40;99.90
10316;DHT22;5203;48.976;8.306;2024-03-06T01:10:03;5.50;99.90
10316;DHT22;5203;48.976;8.306;2024-03-06T01:12:32;5.50;99.90
10316;DHT22;5203;48.976;8.306;2024-03-06T01:14:58;5.50;99.90
10316;DHT22;5203;48.976;8.306;2024-03-06T01:17:24;5.50;99.90
10316;DHT22;5203;48.976;8.306;2024-03-06T01:19:50;5.50;99.90
10316;DHT22;5203;48.976;8.306;2024-03-06T01:22:16;5.40;99.90
10316;DHT22;5203;48.976;8.306;2024-03-06T01:24:41;5.40;99.90
10316;DHT22;5203;48.976;8.306;2024-03-06T01:27:08;5.50;99.90
10316;DHT22;5203;48.976;8.306;2024-03-06T01:29:34;5.50;99.90
10316;DHT22;5203;48.976;8.306;2024-03-06T01:31:59;5.50;99.90
10316;DHT22;5203;48.976;8.306;2024-03-06T01:34:25;5.40;99.90
10316;DHT22;5203;48.976;8.306;2024-03-06T01:36:52;5.40;99.90
10316;DHT22;5203;48.976;8.306;2024-03-06T01:39:17;5.40;99.90
10316;DHT22;5203;48.976;8.306;2024-03-06T01:41:47;5.40;99.90
10316;DHT22;5203;48.976;8.306;2024-03-06T01:44:17;5.40;99.90
10316;DHT22;5203;48.976;8.306;2024-03-06T01:46:44;5.40;99.90
10316;DHT22;5203;48.976;8.306;2024-03-06T01:49:11;5.40;99.90
10316;DHT22;5203;48.976;8.306;2024-03-06T01:51:40;5.40;99.90
10316;DHT22;5203;48.976;8.306;2024-03-06T01:54:06;5.30;99.90
10316;DHT22;5203;48.976;8.306;2024-03-06T01:56:33;5.30;99.90
10316;DHT22;5203;48.976;8.306;2024-03-06T01:59:01;5.30;99.90
10316;DHT22;5203;48.976;8.306;2024-03-06T02:01:28;5.20;99.90
10316;DHT22;5203;48.976;8.306;2024-03-06T02:03:54;5.20;99.90
10316;DHT22;5203;48.976;8.306;2024-03-06T02:06:20;5.10;99.90
10316;DHT22;5203;48.976;8.306;2024-03-06T02:08:46;5.10;99.90
10316;DHT22;5203;48.976;8.306;2024-03-06T02:11:12;5.10;99.90
10316;DHT22;5203;48.976;8.306;2024-03-06T02:13:39;5.10;99.90
10316;DHT22;5203;48.976;8.306;2024-03-06T02:16:06;5.10;99.90
10316;DHT22;5203;48.976;8.306;2024-03-06T02:18:31;5.10;99.90
10316;DHT22;5203;48.976;8.306;2024-03-06T02:20:57;5.10;99.90
10316;DHT22;5203;48.976;8.306;2024-03-06T02:23:23;5.10;99.90
10316;DHT22;5203;48.976;8.306;2024-03-06T02:25:49;5.10;99.90
10316;DHT22;5203;48.976;8.306;2024-03-06T02:28:15;5.10;99.90
10316;DHT22;5203;48.976;8.306;2024-03-06T02:30:42;5.10;99.90
10316;DHT22;5203;48.976;8.306;2024-03-06T02:33:08;5.10;99.90
10316;DHT22;5203;48.976;8.306;2024-03-06T02:35:36;5.00;99.90
10316;DHT22;5203;48.976;8.306;2024-03-06T02:38:04;5.00;99.90
10316;DHT22;5203;48.976;8.306;2024-03-06T02:40:33;5.00;99.90
10316;DHT22;5203;48.976;8.306;2024-03-06T02:42:58;5.00;99.90
10316;DHT22;5203;48.976;8.306;2024-03-06T02:45:24;5.00;99.90
10316;DHT22;5203;48.976;8.306;2024-03-06T02:47:50;5.10;99.90
10316;DHT22;5203;48.976;8.306;2024-03-06T02:50:16;5.10;99.90
10316;DHT22;5203;48.976;8.306;2024-03-06T02:52:41;5.10;99.90
10316;DHT22;5203;48.976;8.306;2024-03-06T02:55:07;5.10;99.90
10316;DHT22;5203;48.976;8.306;2024-03-06T02:57:33;5.20;99.90
10316;DHT22;5203;48.976;8.306;2024-03-06T02:59:59;5.20;99.90
10316;DHT22;5203;48.976;8.306;2024-03-06T03:02:25;5.20;99.90
10316;DHT22;5203;48.976;8.306;2024-03-06T03:04:52;5.20;99.90
10316;DHT22;5203;48.976;8.306;2024-03-06T03:07:20;5.20;99.90
10316;DHT22;5203;48.976;8.306;2024-03-06T03:09:46;5.10;99.90
10316;DHT22;5203;48.976;8.306;2024-03-06T03:12:15;5.10;99.90
10316;DHT22;5203;48.976;8.306;2024-03-06T03:14:41;5.10;99.90
10316;DHT22;5203;48.976;8.306;2024-03-06T03:17:07;5.10;99.90
10316;DHT22;5203;48.976;8.306;2024-03-06T03:19:33;5.10;99.90
10316;DHT22;5203;48.976;8.306;2024-03-06T03:21:59;5.10;99.90
10316;DHT22;5203;48.976;8.306;2024-03-06T03:24:25;5.20;99.90
10316;DHT22;5203;48.976;8.306;2024-03-06T03:26:52;5.20;99.90
10316;DHT22;5203;48.976;8.306;2024-03-06T03:29:18;5.20;99.90
10316;DHT22;5203;48.976;8.306;2024-03-06T03:31:44;5.20;99.90
10316;DHT22;5203;48.976;8.306;2024-03-06T03:34:10;5.20;99.90
10316;DHT22;5203;48.976;8.306;2024-03-06T03:36:42;5.20;99.90
10316;DHT22;5203;48.976;8.306;2024-03-06T03:39:11;5.20;99.90
10316;DHT22;5203;48.976;8.306;2024-03-06T03:41:46;5.20;99.90
10316;DHT22;5203;48.976;8.306;2024-03-06T03:44:17;5.20;99.90
10316;DHT22;5203;48.976;8.306;2024-03-06T03:46:44;5.30;99.90
10316;DHT22;5203;48.976;8.306;2024-03-06T03:49:10;5.30;99.90
10316;DHT22;5203;48.976;8.306;2024-03-06T03:51:37;5.30;99.90
10316;DHT22;5203;48.976;8.306;2024-03-06T03:54:03;5.30;99.90
10316;DHT22;5203;48.976;8.306;2024-03-06T03:56:29;5.20;99.90
10316;DHT22;5203;48.976;8.306;2024-03-06T03:58:58;5.20;99.90
10316;DHT22;5203;48.976;8.306;2024-03-06T04:01:25;5.20;99.90
10316;DHT22;5203;48.976;8.306;2024-03-06T04:03:51;5.20;99.90
10316;DHT22;5203;48.976;8.306;2024-03-06T04:06:17;5.20;99.90
10316;DHT22;5203;48.976;8.306;2024-03-06T04:08:44;5.20;99.90
10316;DHT22;5203;48.976;8.306;2024-03-06T04:11:10;5.20;99.90
10316;DHT22;5203;48.976;8.306;2024-03-06T04:13:39;5.20;99.90
10316;DHT22;5203;48.976;8.306;2024-03-06T04:16:05;5.20;99.90
10316;DHT22;5203;48.976;8.306;2024-03-06T04:18:31;5.20;99.90
10316;DHT22;5203;48.976;8.306;2024-03-06T04:21:04;5.20;99.90
10316;DHT22;5203;48.976;8.306;2024-03-06T04:23:30;5.20;99.90
10316;DHT22;5203;48.976;8.306;2024-03-06T04:25:56;5.10;99.90
10316;DHT22;5203;48.976;8.306;2024-03-06T04:28:22;5.20;99.90
10316;DHT22;5203;48.976;8.306;2024-03-06T04:30:48;5.10;99.90
10316;DHT22;5203;48.976;8.306;2024-03-06T04:33:14;5.10;99.90
10316;DHT22;5203;48.976;8.306;2024-03-06T04:35:41;5.10;99.90
10316;DHT22;5203;48.976;8.306;2024-03-06T04:38:07;5.10;99.90
10316;DHT22;5203;48.976;8.306;2024-03-06T04:40:34;5.10;99.90
10316;DHT22;5203;48.976;8.306;2024-03-06T04:43:02;5.10;99.90
10316;DHT22;5203;48.976;8.306;2024-03-06T04:45:28;5.10;99.90
10316;DHT22;5203;48.976;8.306;2024-03-06T04:47:54;5.10;99.90
10316;DHT22;5203;48.976;8.306;2024-03-06T04:50:20;5.00;99.90
10316;DHT22;5203;48.976;8.306;2024-03-06T04:52:46;5.10;99.90
10316;DHT22;5203;48.976;8.306;2024-03-06T04:55:12;5.10;99.90
10316;DHT22;5203;48.976;8.306;2024-03-06T04:57:38;5.10;99.90
10316;DHT22;5203;48.976;8.306;2024-03-06T05:00:06;5.00;99.90
10316;DHT22;5203;48.976;8.306;2024-03-06T05:02:32;5.00;99.90
10316;DHT22;5203;48.976;8.306;2024-03-06T05:05:00;4.90;99.90
10316;DHT22;5203;48.976;8.306;2024-03-06T05:07:27;4.90;99.90
10316;DHT22;5203;48.976;8.306;2024-03-06T05:09:53;4.80;99.90
10316;DHT22;5203;48.976;8.306;2024-03-06T05:12:19;4.90;99.90
10316;DHT22;5203;48.976;8.306;2024-03-06T05:14:45;4.90;99.90
10316;DHT22;5203;48.976;8.306;2024-03-06T05:17:10;4.90;99.90
10316;DHT22;5203;48.976;8.306;2024-03-06T05:19:36;4.80;99.90
10316;DHT22;5203;48.976;8.306;2024-03-06T05:22:03;4.80;99.90
10316;DHT22;5203;48.976;8.306;2024-03-06T05:24:29;4.80;99.90
10316;DHT22;5203;48.976;8.306;2024-03-06T05:26:55;4.80;99.90
10316;DHT22;5203;48.976;8.306;2024-03-06T05:29:20;4.80;99.90
10316;DHT22;5203;48.976;8.306;2024-03-06T05:31:46;4.90;99.90
10316;DHT22;5203;48.976;8.306;2024-03-06T05:34:12;4.90;99.90
10316;DHT22;5203;48.976;8.306;2024-03-06T05:36:37;4.90;99.90
10316;DHT22;5203;48.976;8.306;2024-03-06T05:39:03;4.90;99.90
10316;DHT22;5203;48.976;8.306;2024-03-06T05:41:38;4.90;99.90
10316;DHT22;5203;48.976;8.306;2024-03-06T05:44:05;4.90;99.90
10316;DHT22;5203;48.976;8.306;2024-03-06T05:46:31;4.90;99.90
10316;DHT22;5203;48.976;8.306;2024-03-06T05:48:57;4.90;99.90
10316;DHT22;5203;48.976;8.306;2024-03-06T05:51:23;5.00;99.90
10316;DHT22;5203;48.976;8.306;2024-03-06T05:53:49;5.00;99.90
10316;DHT22;5203;48.976;8.306;2024-03-06T05:56:15;5.00;99.90
10316;DHT22;5203;48.976;8.306;2024-03-06T05:58:40;4.90;99.90
10316;DHT22;5203;48.976;8.306;2024-03-06T06:01:06;4.90;99.90
10316;DHT22;5203;48.976;8.306;2024-03-06T06:03:32;4.90;99.90
10316;DHT22;5203;48.976;8.306;2024-03-06T06:05:58;4.90;99.90
10316;DHT22;5203;48.976;8.306;2024-03-06T06:08:24;4.80;99.90
10316;DHT22;5203;48.976;8.306;2024-03-06T06:10:50;4.90;99.90
10316;DHT22;5203;48.976;8.306;2024-03-06T06:13:20;4.90;99.90
10316;DHT22;5203;48.976;8.306;2024-03-06T06:15:46;4.90;99.90
10316;DHT22;5203;48.976;8.306;2024-03-06T06:18:12;4.90;99.90
10316;DHT22;5203;48.976;8.306;2024-03-06T06:20:38;4.90;99.90
10316;DHT22;5203;48.976;8.306;2024-03-06T06:23:04;5.00;99.90
10316;DHT22;5203;48.976;8.306;2024-03-06T06:25:30;5.00;99.90
10316;DHT22;5203;48.976;8.306;2024-03-06T06:27:58;4.90;99.90
10316;DHT22;5203;48.976;8.306;2024-03-06T06:30:23;5.10;99.90
10316;DHT22;5203;48.976;8.306;2024-03-06T06:32:50;5.10;99.90
10316;DHT22;5203;48.976;8.306;2024-03-06T06:35:18;5.10;99.90
10316;DHT22;5203;48.976;8.306;2024-03-06T06:37:44;5.20;99.90
10316;DHT22;5203;48.976;8.306;2024-03-06T06:40:10;5.20;99.90
10316;DHT22;5203;48.976;8.306;2024-03-06T06:42:43;5.20;99.90
10316;DHT22;5203;48.976;8.306;2024-03-06T06:45:09;5.20;99.90
10316;DHT22;5203;48.976;8.306;2024-03-06T06:47:35;5.30;99.90
10316;DHT22;5203;48.976;8.306;2024-03-06T06:50:00;5.30;99.90
10316;DHT22;5203;48.976;8.306;2024-03-06T06:52:30;5.30;99.90
10316;DHT22;5203;48.976;8.306;2024-03-06T06:54:59;5.40;99.90
10316;DHT22;5203;48.976;8.306;2024-03-06T06:57:24;5.40;99.90
10316;DHT22;5203;48.976;8.306;2024-03-06T06:59:50;5.40;99.90
10316;DHT22;5203;48.976;8.306;2024-03-06T07:02:15;5.50;99.90
10316;DHT22;5203;48.976;8.306;2024-03-06T07:04:41;5.50;99.90
10316;DHT22;5203;48.976;8.306;2024-03-06T07:07:07;5.60;99.90
10316;DHT22;5203;48.976;8.306;2024-03-06T07:09:33;5.60;99.90
10316;DHT22;5203;48.976;8.306;2024-03-06T07:11:59;5.60;99.90
10316;DHT22;5203;48.976;8.306;2024-03-06T07:14:25;5.60;99.90
10316;DHT22;5203;48.976;8.306;2024-03-06T07:16:51;5.60;99.90
10316;DHT22;5203;48.976;8.306;2024-03-06T07:19:17;5.70;99.90
10316;DHT22;5203;48.976;8.306;2024-03-06T07:21:43;5.70;99.90
10316;DHT22;5203;48.976;8.306;2024-03-06T07:24:09;5.70;99.90
10316;DHT22;5203;48.976;8.306;2024-03-06T07:26:35;5.80;99.90
10316;DHT22;5203;48.976;8.306;2024-03-06T07:29:03;5.80;99.90
10316;DHT22;5203;48.976;8.306;2024-03-06T07:31:29;5.80;99.90
10316;DHT22;5203;48.976;8.306;2024-03-06T07:33:55;5.70;99.90
10316;DHT22;5203;48.976;8.306;2024-03-06T07:36:21;5.80;99.90
10316;DHT22;5203;48.976;8.306;2024-03-06T07:38:47;5.80;99.90
10316;DHT22;5203;48.976;8.306;2024-03-06T07:41:13;5.80;99.90
10316;DHT22;5203;48.976;8.306;2024-03-06T07:43:39;5.90;99.90
10316;DHT22;5203;48.976;8.306;2024-03-06T07:46:04;5.90;99.90
10316;DHT22;5203;48.976;8.306;2024-03-06T07:48:37;5.90;99.90
10316;DHT22;5203;48.976;8.306;2024-03-06T07:51:03;5.90;99.90
10316;DHT22;5203;48.976;8.306;2024-03-06T07:53:28;5.90;99.90
10316;DHT22;5203;48.976;8.306;2024-03-06T07:55:54;6.00;99.90
10316;DHT22;5203;48.976;8.306;2024-03-06T07:58:20;6.00;99.90
10316;DHT22;5203;48.976;8.306;2024-03-06T08:00:46;6.00;99.90
10316;DHT22;5203;48.976;8.306;2024-03-06T08:03:12;5.90;99.90
10316;DHT22;5203;48.976;8.306;2024-03-06T08:05:39;5.90;99.90
10316;DHT22;5203;48.976;8.306;2024-03-06T08:08:05;6.00;99.90
10316;DHT22;5203;48.976;8.306;2024-03-06T08:10:34;6.00;99.90
10316;DHT22;5203;48.976;8.306;2024-03-06T08:13:00;6.10;99.90
10316;DHT22;5203;48.976;8.306;2024-03-06T08:15:26;6.10;99.90
10316;DHT22;5203;48.976;8.306;2024-03-06T08:17:52;6.00;99.90
10316;DHT22;5203;48.976;8.306;2024-03-06T08:20:18;6.10;99.90
10316;DHT22;5203;48.976;8.306;2024-03-06T08:22:44;6.10;99.90
10316;DHT22;5203;48.976;8.306;2024-03-06T08:25:13;6.20;99.90
10316;DHT22;5203;48.976;8.306;2024-03-06T08:27:40;6.10;99.90
10316;DHT22;5203;48.976;8.306;2024-03-06T08:30:07;6.20;99.90
10316;DHT22;5203;48.976;8.306;2024-03-06T08:32:34;6.30;99.90
10316;DHT22;5203;48.976;8.306;2024-03-06T08:35:11;6.30;99.90
10316;DHT22;5203;48.976;8.306;2024-03-06T08:37:37;6.40;99.90
10316;DHT22;5203;48.976;8.306;2024-03-06T08:40:05;6.50;99.90
10316;DHT22;5203;48.976;8.306;2024-03-06T08:42:31;6.40;99.90
10316;DHT22;5203;48.976;8.306;2024-03-06T08:44:58;6.60;99.90
10316;DHT22;5203;48.976;8.306;2024-03-06T08:47:23;6.40;99.90
10316;DHT22;5203;48.976;8.306;2024-03-06T08:49:49;6.30;99.90
10316;DHT22;5203;48.976;8.306;2024-03-06T08:52:15;6.40;99.90
10316;DHT22;5203;48.976;8.306;2024-03-06T08:54:44;6.30;99.90
10316;DHT22;5203;48.976;8.306;2024-03-06T08:57:10;6.30;99.90
10316;DHT22;5203;48.976;8.306;2024-03-06T08:59:36;6.40;99.90
10316;DHT22;5203;48.976;8.306;2024-03-06T09:02:19;6.60;99.90
10316;DHT22;5203;48.976;8.306;2024-03-06T09:04:47;6.70;99.90
10316;DHT22;5203;48.976;8.306;2024-03-06T09:07:14;6.70;99.90
10316;DHT22;5203;48.976;8.306;2024-03-06T09:09:40;6.60;99.90
10316;DHT22;5203;48.976;8.306;2024-03-06T09:12:07;6.60;99.90
10316;DHT22;5203;48.976;8.306;2024-03-06T09:14:36;6.70;99.90
10316;DHT22;5203;48.976;8.306;2024-03-06T09:17:02;6.80;99.90
10316;DHT22;5203;48.976;8.306;2024-03-06T09:19:28;6.90;99.90
10316;DHT22;5203;48.976;8.306;2024-03-06T09:21:54;7.00;99.90
10316;DHT22;5203;48.976;8.306;2024-03-06T09:24:21;7.20;99.90
10316;DHT22;5203;48.976;8.306;2024-03-06T09:26:48;7.40;99.90
10316;DHT22;5203;48.976;8.306;2024-03-06T09:29:21;7.40;99.90
10316;DHT22;5203;48.976;8.306;2024-03-06T09:31:47;7.40;99.90
10316;DHT22;5203;48.976;8.306;2024-03-06T09:34:14;7.40;99.90
10316;DHT22;5203;48.976;8.306;2024-03-06T09:36:46;7.40;99.90
10316;DHT22;5203;48.976;8.306;2024-03-06T09:39:13;7.40;99.90
10316;DHT22;5203;48.976;8.306;2024-03-06T09:41:46;7.60;99.90
10316;DHT22;5203;48.976;8.306;2024-03-06T09:44:12;7.70;99.90
10316;DHT22;5203;48.976;8.306;2024-03-06T09:46:43;7.70;99.90
10316;DHT22;5203;48.976;8.306;2024-03-06T09:49:13;7.70;99.90
10316;DHT22;5203;48.976;8.306;2024-03-06T09:51:43;7.80;99.90
10316;DHT22;5203;48.976;8.306;2024-03-06T09:54:13;7.80;99.90
10316;DHT22;5203;48.976;8.306;2024-03-06T09:56:46;7.80;99.90
10316;DHT22;5203;48.976;8.306;2024-03-06T09:59:13;7.90;99.90
10316;DHT22;5203;48.976;8.306;2024-03-06T10:01:56;8.00;99.90
10316;DHT22;5203;48.976;8.306;2024-03-06T10:04:27;7.90;99.90
10316;DHT22;5203;48.976;8.306;2024-03-06T10:06:55;8.10;99.90
10316;DHT22;5203;48.976;8.306;2024-03-06T10:09:21;8.00;99.90
10316;DHT22;5203;48.976;8.306;2024-03-06T10:11:47;8.10;99.90
10316;DHT22;5203;48.976;8.306;2024-03-06T10:14:13;8.20;99.90
10316;DHT22;5203;48.976;8.306;2024-03-06T10:17:11;8.40;99.90
10316;DHT22;5203;48.976;8.306;2024-03-06T10:19:44;8.20;99.90
10316;DHT22;5203;48.976;8.306;2024-03-06T10:22:15;8.20;99.90
10316;DHT22;5203;48.976;8.306;2024-03-06T10:24:41;8.40;99.90
10316;DHT22;5203;48.976;8.306;2024-03-06T10:27:07;8.40;99.90
10316;DHT22;5203;48.976;8.306;2024-03-06T10:29:33;8.40;99.90
10316;DHT22;5203;48.976;8.306;2024-03-06T10:32:00;8.30;99.90
10316;DHT22;5203;48.976;8.306;2024-03-06T10:34:28;8.50;99.90
10316;DHT22;5203;48.976;8.306;2024-03-06T10:36:55;8.60;99.90
10316;DHT22;5203;48.976;8.306;2024-03-06T10:39:21;8.60;99.90
10316;DHT22;5203;48.976;8.306;2024-03-06T10:41:55;8.70;99.90
10316;DHT22;5203;48.976;8.306;2024-03-06T10:44:30;8.90;99.90
10316;DHT22;5203;48.976;8.306;2024-03-06T10:46:58;9.00;99.90
10316;DHT22;5203;48.976;8.306;2024-03-06T10:49:26;8.90;99.90
10316;DHT22;5203;48.976;8.306;2024-03-06T10:51:59;8.90;99.90
10316;DHT22;5203;48.976;8.306;2024-03-06T10:54:30;8.80;99.90
10316;DHT22;5203;48.976;8.306;2024-03-06T10:56:58;8.60;99.90
10316;DHT22;5203;48.976;8.306;2024-03-06T10:59:28;8.50;99.90
10316;DHT22;5203;48.976;8.306;2024-03-06T11:01:55;8.50;99.90
10316;DHT22;5203;48.976;8.306;2024-03-06T11:04:29;8.60;99.90
10316;DHT22;5203;48.976;8.306;2024-03-06T11:07:00;8.70;99.90
10316;DHT22;5203;48.976;8.306;2024-03-06T11:09:27;8.70;99.90
10316;DHT22;5203;48.976;8.306;2024-03-06T11:11:53;8.60;99.90
10316;DHT22;5203;48.976;8.306;2024-03-06T11:14:23;8.60;99.80
10316;DHT22;5203;48.976;8.306;2024-03-06T11:19:24;8.50;98.80
10316;DHT22;5203;48.976;8.306;2024-03-06T11:21:50;8.50;99.90
10316;DHT22;5203;48.976;8.306;2024-03-06T11:24:21;8.50;99.90
10316;DHT22;5203;48.976;8.306;2024-03-06T11:27:04;8.50;99.90
10316;DHT22;5203;48.976;8.306;2024-03-06T11:32:37;8.50;99.90
10316;DHT22;5203;48.976;8.306;2024-03-06T11:35:03;8.70;99.60
10316;DHT22;5203;48.976;8.306;2024-03-06T11:37:33;8.70;98.80
10316;DHT22;5203;48.976;8.306;2024-03-06T11:40:00;8.70;99.50
10316;DHT22;5203;48.976;8.306;2024-03-06T11:42:34;8.50;99.80
10316;DHT22;5203;48.976;8.306;2024-03-06T11:45:17;8.40;98.20
10316;DHT22;5203;48.976;8.306;2024-03-06T11:48:01;8.40;98.90
10316;DHT22;5203;48.976;8.306;2024-03-06T11:50:27;8.40;99.50
10316;DHT22;5203;48.976;8.306;2024-03-06T11:52:54;8.40;99.90
10316;DHT22;5203;48.976;8.306;2024-03-06T11:55:23;8.50;99.90
10316;DHT22;5203;48.976;8.306;2024-03-06T11:57:52;8.50;99.90
10316;DHT22;5203;48.976;8.306;2024-03-06T12:00:22;8.40;99.20
10316;DHT22;5203;48.976;8.306;2024-03-06T12:02:50;8.40;99.90
10316;DHT22;5203;48.976;8.306;2024-03-06T12:05:17;8.50;99.90
10316;DHT22;5203;48.976;8.306;2024-03-06T12:08:01;8.40;99.90
10316;DHT22;5203;48.976;8.306;2024-03-06T12:10:28;8.40;99.90
10316;DHT22;5203;48.976;8.306;2024-03-06T12:12:54;8.50;99.90
10316;DHT22;5203;48.976;8.306;2024-03-06T12:15:20;8.50;99.90
10316;DHT22;5203;48.976;8.306;2024-03-06T12:17:47;8.50;99.90
10316;DHT22;5203;48.976;8.306;2024-03-06T12:20:15;8.40;99.70
10316;DHT22;5203;48.976;8.306;2024-03-06T12:22:53;8.50;99.90
10316;DHT22;5203;48.976;8.306;2024-03-06T12:25:22;8.50;99.90
10316;DHT22;5203;48.976;8.306;2024-03-06T12:27:49;8.50;99.90
10316;DHT22;5203;48.976;8.306;2024-03-06T12:30:20;8.60;98.20
10316;DHT22;5203;48.976;8.306;2024-03-06T12:33:00;8.50;99.10
10316;DHT22;5203;48.976;8.306;2024-03-06T12:35:30;8.50;98.30
10316;DHT22;5203;48.976;8.306;2024-03-06T12:37:56;8.60;98.90
10316;DHT22;5203;48.976;8.306;2024-03-06T12:40:22;8.70;98.10
10316;DHT22;5203;48.976;8.306;2024-03-06T12:42:48;8.90;98.30
10316;DHT22;5203;48.976;8.306;2024-03-06T12:45:19;8.80;96.90
10316;DHT22;5203;48.976;8.306;2024-03-06T12:47:46;8.80;95.90
10316;DHT22;5203;48.976;8.306;2024-03-06T12:50:14;8.80;96.90
10316;DHT22;5203;48.976;8.306;2024-03-06T12:52:40;9.00;97.80
10316;DHT22;5203;48.976;8.306;2024-03-06T12:55:07;8.90;95.50
10316;DHT22;5203;48.976;8.306;2024-03-06T12:57:33;8.80;96.80
10316;DHT22;5203;48.976;8.306;2024-03-06T13:00:00;9.00;97.80
10316;DHT22;5203;48.976;8.306;2024-03-06T13:02:26;9.00;95.70
10316;DHT22;5203;48.976;8.306;2024-03-06T13:04:52;9.10;95.90
10316;DHT22;5203;48.976;8.306;2024-03-06T13:07:18;9.10;96.30
10316;DHT22;5203;48.976;8.306;2024-03-06T13:09:45;8.90;95.60
10316;DHT22;5203;48.976;8.306;2024-03-06T13:12:11;8.90;97.70
10316;DHT22;5203;48.976;8.306;2024-03-06T13:14:36;8.80;98.00
10316;DHT22;5203;48.976;8.306;2024-03-06T13:17:02;8.90;98.10
10316;DHT22;5203;48.976;8.306;2024-03-06T13:19:29;9.00;97.30
10316;DHT22;5203;48.976;8.306;2024-03-06T13:21:54;9.00;95.30
10316;DHT22;5203;48.976;8.306;2024-03-06T13:24:20;8.80;97.50
10316;DHT22;5203;48.976;8.306;2024-03-06T13:26:46;9.00;98.60
10316;DHT22;5203;48.976;8.306;2024-03-06T13:29:13;9.10;96.40
10316;DHT22;5203;48.976;8.306;2024-03-06T13:31:38;9.30;95.40
10316;DHT22;5203;48.976;8.306;2024-03-06T13:34:04;9.40;94.60
10316;DHT22;5203;48.976;8.306;2024-03-06T13:36:30;9.30;94.70
10316;DHT22;5203;48.976;8.306;2024-03-06T13:38:56;9.30;95.20
10316;DHT22;5203;48.976;8.306;2024-03-06T13:41:22;9.40;95.10
10316;DHT22;5203;48.976;8.306;2024-03-06T13:43:49;9.50;94.00
10316;DHT22;5203;48.976;8.306;2024-03-06T13:46:15;9.40;94.30
10316;DHT22;5203;48.976;8.306;2024-03-06T13:48:40;9.40;94.80
10316;DHT22;5203;48.976;8.306;2024-03-06T13:51:06;9.50;93.20
10316;DHT22;5203;48.976;8.306;2024-03-06T13:53:32;9.60;93.50
10316;DHT22;5203;48.976;8.306;2024-03-06T13:55:58;9.50;91.20
10316;DHT22;5203;48.976;8.306;2024-03-06T13:58:23;9.40;91.40
10316;DHT22;5203;48.976;8.306;2024-03-06T14:00:49;9.30;95.10
10316;DHT22;5203;48.976;8.306;2024-03-06T14:03:16;9.30;95.60
10316;DHT22;5203;48.976;8.306;2024-03-06T14:05:42;9.30;95.20
10316;DHT22;5203;48.976;8.306;2024-03-06T14:08:08;9.20;94.50
10316;DHT22;5203;48.976;8.306;2024-03-06T14:10:40;9.20;95.90
10316;DHT22;5203;48.976;8.306;2024-03-06T14:13:06;9.20;96.20
10316;DHT22;5203;48.976;8.306;2024-03-06T14:15:33;9.00;96.20
10316;DHT22;5203;48.976;8.306;2024-03-06T14:17:58;8.90;97.10
10316;DHT22;5203;48.976;8.306;2024-03-06T14:20:26;8.80;99.70
10316;DHT22;5203;48.976;8.306;2024-03-06T14:22:53;8.90;99.90
10316;DHT22;5203;48.976;8.306;2024-03-06T14:25:19;8.90;99.90
10316;DHT22;5203;48.976;8.306;2024-03-06T14:27:46;8.90;99.90
10316;DHT22;5203;48.976;8.306;2024-03-06T14:30:12;8.90;99.90
10316;DHT22;5203;48.976;8.306;2024-03-06T14:32:37;9.00;99.90
10316;DHT22;5203;48.976;8.306;2024-03-06T14:35:07;9.00;99.90
10316;DHT22;5203;48.976;8.306;2024-03-06T14:37:33;9.00;99.90
10316;DHT22;5203;48.976;8.306;2024-03-06T14:39:58;9.10;99.90
10316;DHT22;5203;48.976;8.306;2024-03-06T14:42:24;9.00;99.90
10316;DHT22;5203;48.976;8.306;2024-03-06T14:44:50;9.00;99.90
10316;DHT22;5203;48.976;8.306;2024-03-06T14:47:19;9.10;99.90
10316;DHT22;5203;48.976;8.306;2024-03-06T14:49:45;9.20;99.90
10316;DHT22;5203;48.976;8.306;2024-03-06T14:52:11;9.10;99.90
10316;DHT22;5203;48.976;8.306;2024-03-06T14:54:38;9.10;99.90
10316;DHT22;5203;48.976;8.306;2024-03-06T14:57:06;8.90;99.90
10316;DHT22;5203;48.976;8.306;2024-03-06T14:59:32;8.80;99.90
10316;DHT22;5203;48.976;8.306;2024-03-06T15:01:57;8.80;99.90
10316;DHT22;5203;48.976;8.306;2024-03-06T15:04:23;8.70;99.90
10316;DHT22;5203;48.976;8.306;2024-03-06T15:06:49;8.60;99.90
10316;DHT22;5203;48.976;8.306;2024-03-06T15:09:15;8.50;99.90
10316;DHT22;5203;48.976;8.306;2024-03-06T15:11:47;8.30;99.90
10316;DHT22;5203;48.976;8.306;2024-03-06T15:14:13;8.30;99.90
10316;DHT22;5203;48.976;8.306;2024-03-06T15:16:39;8.30;99.90
10316;DHT22;5203;48.976;8.306;2024-03-06T15:19:06;8.30;99.90
10316;DHT22;5203;48.976;8.306;2024-03-06T15:21:31;8.20;99.90
10316;DHT22;5203;48.976;8.306;2024-03-06T15:23:57;8.20;99.90
10316;DHT22;5203;48.976;8.306;2024-03-06T15:26:23;8.10;99.90
10316;DHT22;5203;48.976;8.306;2024-03-06T15:28:48;8.00;99.90
10316;DHT22;5203;48.976;8.306;2024-03-06T15:31:14;8.00;99.90
10316;DHT22;5203;48.976;8.306;2024-03-06T15:33:40;8.00;99.90
10316;DHT22;5203;48.976;8.306;2024-03-06T15:36:07;8.00;99.90
10316;DHT22;5203;48.976;8.306;2024-03-06T15:38:33;8.00;99.90
10316;DHT22;5203;48.976;8.306;2024-03-06T15:40:59;8.00;99.90
10316;DHT22;5203;48.976;8.306;2024-03-06T15:43:25;8.00;99.90
10316;DHT22;5203;48.976;8.306;2024-03-06T15:45:51;8.00;99.90
10316;DHT22;5203;48.976;8.306;2024-03-06T15:48:17;8.00;99.90
10316;DHT22;5203;48.976;8.306;2024-03-06T15:50:43;7.90;99.90
10316;DHT22;5203;48.976;8.306;2024-03-06T15:53:09;8.00;99.90
10316;DHT22;5203;48.976;8.306;2024-03-06T15:55:36;8.00;99.90
10316;DHT22;5203;48.976;8.306;2024-03-06T15:58:05;7.90;99.90
10316;DHT22;5203;48.976;8.306;2024-03-06T16:00:31;7.90;99.90
10316;DHT22;5203;48.976;8.306;2024-03-06T16:02:57;7.90;99.90
10316;DHT22;5203;48.976;8.306;2024-03-06T16:05:24;7.90;99.90
10316;DHT22;5203;48.976;8.306;2024-03-06T16:07:53;7.90;99.90